sensor_id;sensor_type;location;lat;lon;timestamp;pressure;altitude;pressure_sealevel;temperature;humidity
63190;BME280;49286;44.460;26.114;2023-03-16T00:00:03;99251.22;;;5.58;100.00
63190;BME280;49286;44.460;26.114;2023-03-16T00:02:29;99399.75;;;6.40;100.00
63190;BME280;49286;44.460;26.114;2023-03-16T00:04:54;99281.63;;;5.79;100.00
63190;BME280;49286;44.460;26.114;2023-03-16T00:07:19;99265.97;;;5.64;100.00
63190;BME280;49286;44.460;26.114;2023-03-16T00:09:46;99314.59;;;5.85;100.00
63190;BME280;49286;44.460;26.114;2023-03-16T00:12:16;99262.50;;;5.53;100.00
63190;BME280;49286;44.460;26.114;2023-03-16T00:14:44;99436.22;;;6.47;100.00
63190;BME280;49286;44.460;26.114;2023-03-16T00:17:15;99413.66;;;6.49;100.00
63190;BME280;49286;44.460;26.114;2023-03-16T00:19:52;99406.69;;;6.41;100.00
63190;BME280;49286;44.460;26.114;2023-03-16T00:22:27;99425.81;;;6.47;100.00
63190;BME280;49286;44.460;26.114;2023-03-16T00:24:53;99315.47;;;5.93;100.00
63190;BME280;49286;44.460;26.114;2023-03-16T00:27:20;99407.56;;;6.33;100.00
63190;BME280;49286;44.460;26.114;2023-03-16T00:29:48;99359.78;;;6.08;100.00
63190;BME280;49286;44.460;26.114;2023-03-16T00:32:19;99426.69;;;6.40;100.00
63190;BME280;49286;44.460;26.114;2023-03-16T00:34:45;99438.84;;;6.57;100.00
63190;BME280;49286;44.460;26.114;2023-03-16T00:37:12;99285.94;;;5.76;100.00
63190;BME280;49286;44.460;26.114;2023-03-16T00:39:43;99427.53;;;6.53;100.00
63190;BME280;49286;44.460;26.114;2023-03-16T00:42:10;99295.50;;;5.74;100.00
63190;BME280;49286;44.460;26.114;2023-03-16T00:44:37;99338.09;;;6.02;100.00
63190;BME280;49286;44.460;26.114;2023-03-16T00:47:04;99440.56;;;6.48;100.00
63190;BME280;49286;44.460;26.114;2023-03-16T00:49:31;99414.53;;;6.38;100.00
63190;BME280;49286;44.460;26.114;2023-03-16T00:52:03;99417.13;;;6.30;100.00
63190;BME280;49286;44.460;26.114;2023-03-16T00:54:29;99428.38;;;6.27;100.00
63190;BME280;49286;44.460;26.114;2023-03-16T00:56:57;99263.31;;;5.28;100.00
63190;BME280;49286;44.460;26.114;2023-03-16T00:59:23;99330.16;;;5.66;100.00
63190;BME280;49286;44.460;26.114;2023-03-16T01:01:54;99292.81;;;5.32;100.00
63190;BME280;49286;44.460;26.114;2023-03-16T01:04:20;99413.59;;;6.05;100.00
63190;BME280;49286;44.460;26.114;2023-03-16T01:06:47;99419.66;;;6.01;100.00
63190;BME280;49286;44.460;26.114;2023-03-16T01:09:13;99282.34;;;5.14;100.00
63190;BME280;49286;44.460;26.114;2023-03-16T01:11:40;99351.84;;;5.53;100.00
63190;BME280;49286;44.460;26.114;2023-03-16T01:14:09;99314.47;;;5.29;100.00
63190;BME280;49286;44.460;26.114;2023-03-16T01:16:35;99338.75;;;5.35;100.00
63190;BME280;49286;44.460;26.114;2023-03-16T01:19:00;99474.38;;;6.13;100.00
63190;BME280;49286;44.460;26.114;2023-03-16T01:21:26;99342.22;;;5.34;100.00
63190;BME280;49286;44.460;26.114;2023-03-16T01:23:52;99493.47;;;6.15;100.00
63190;BME280;49286;44.460;26.114;2023-03-16T01:26:18;99488.31;;;6.18;100.00
63190;BME280;49286;44.460;26.114;2023-03-16T01:28:45;99338.72;;;5.22;100.00
63190;BME280;49286;44.460;26.114;2023-03-16T01:31:12;99502.16;;;6.12;100.00
63190;BME280;49286;44.460;26.114;2023-03-16T01:33:39;99503.06;;;6.16;100.00
63190;BME280;49286;44.460;26.114;2023-03-16T01:36:07;99522.16;;;6.17;100.00
63190;BME280;49286;44.460;26.114;2023-03-16T01:38:33;99500.41;;;6.10;100.00
63190;BME280;49286;44.460;26.114;2023-03-16T01:40:59;99458.66;;;5.90;100.00
63190;BME280;49286;44.460;26.114;2023-03-16T01:43:26;99389.97;;;5.48;100.00
63190;BME280;49286;44.460;26.114;2023-03-16T01:51:09;99406.41;;;5.39;100.00
63190;BME280;49286;44.460;26.114;2023-03-16T01:53:38;99545.59;;;6.18;100.00
63190;BME280;49286;44.460;26.114;2023-03-16T01:56:07;99412.44;;;5.34;100.00
63190;BME280;49286;44.460;26.114;2023-03-16T01:58:34;99534.25;;;6.08;100.00
63190;BME280;49286;44.460;26.114;2023-03-16T02:01:02;99575.09;;;6.20;100.00
63190;BME280;49286;44.460;26.114;2023-03-16T02:03:28;99431.56;;;5.39;100.00
63190;BME280;49286;44.460;26.114;2023-03-16T02:08:36;99487.22;;;5.67;100.00
63190;BME280;49286;44.460;26.114;2023-03-16T02:11:03;99428.91;;;5.33;100.00
63190;BME280;49286;44.460;26.114;2023-03-16T02:13:30;99428.03;;;5.31;100.00
63190;BME280;49286;44.460;26.114;2023-03-16T02:16:01;99550.69;;;5.97;100.00
63190;BME280;49286;44.460;26.114;2023-03-16T02:18:27;99454.03;;;5.31;100.00
63190;BME280;49286;44.460;26.114;2023-03-16T02:20:56;99467.06;;;5.31;100.00
63190;BME280;49286;44.460;26.114;2023-03-16T02:23:26;99608.97;;;6.19;100.00
63190;BME280;49286;44.460;26.114;2023-03-16T02:26:09;99617.63;;;6.13;100.00
63190;BME280;49286;44.460;26.114;2023-03-16T02:31:58;99649.78;;;6.20;100.00
63190;BME280;49286;44.460;26.114;2023-03-16T02:34:27;99530.53;;;5.59;100.00
63190;BME280;49286;44.460;26.114;2023-03-16T02:36:53;99528.72;;;5.44;100.00
63190;BME280;49286;44.460;26.114;2023-03-16T02:39:20;99572.16;;;5.56;100.00
63190;BME280;49286;44.460;26.114;2023-03-16T02:41:46;99523.38;;;5.25;100.00
63190;BME280;49286;44.460;26.114;2023-03-16T02:44:16;99626.13;;;5.86;100.00
63190;BME280;49286;44.460;26.114;2023-03-16T02:46:45;99523.28;;;5.15;100.00
63190;BME280;49286;44.460;26.114;2023-03-16T02:51:56;99544.19;;;5.28;100.00
63190;BME280;49286;44.460;26.114;2023-03-16T02:54:22;99550.25;;;5.24;100.00
63190;BME280;49286;44.460;26.114;2023-03-16T02:56:48;99585.06;;;5.45;100.00
63190;BME280;49286;44.460;26.114;2023-03-16T02:59:13;99673.00;;;5.92;100.00
63190;BME280;49286;44.460;26.114;2023-03-16T03:01:39;99624.22;;;5.62;100.00
63190;BME280;49286;44.460;26.114;2023-03-16T03:04:05;99697.47;;;6.06;100.00
63190;BME280;49286;44.460;26.114;2023-03-16T03:06:31;99675.56;;;5.81;100.00
63190;BME280;49286;44.460;26.114;2023-03-16T03:08:57;99546.63;;;5.04;100.00
63190;BME280;49286;44.460;26.114;2023-03-16T03:11:22;99689.47;;;5.85;100.00
63190;BME280;49286;44.460;26.114;2023-03-16T03:13:48;99571.00;;;5.18;100.00
63190;BME280;49286;44.460;26.114;2023-03-16T03:16:14;99672.91;;;5.74;100.00
63190;BME280;49286;44.460;26.114;2023-03-16T03:18:39;99573.59;;;5.18;100.00
63190;BME280;49286;44.460;26.114;2023-03-16T03:21:05;99658.91;;;5.61;100.00
63190;BME280;49286;44.460;26.114;2023-03-16T03:23:31;99733.69;;;5.80;100.00
63190;BME280;49286;44.460;26.114;2023-03-16T03:25:57;99613.47;;;5.16;100.00
63190;BME280;49286;44.460;26.114;2023-03-16T03:28:23;99743.25;;;5.81;100.00
63190;BME280;49286;44.460;26.114;2023-03-16T03:30:49;99607.31;;;5.09;100.00
63190;BME280;49286;44.460;26.114;2023-03-16T03:33:16;99637.81;;;5.28;100.00
63190;BME280;49286;44.460;26.114;2023-03-16T03:35:41;99605.53;;;5.05;100.00
63190;BME280;49286;44.460;26.114;2023-03-16T03:38:07;99738.00;;;5.77;100.00
63190;BME280;49286;44.460;26.114;2023-03-16T03:40:33;99709.16;;;5.54;100.00
63190;BME280;49286;44.460;26.114;2023-03-16T03:42:59;99585.34;;;4.76;100.00
63190;BME280;49286;44.460;26.114;2023-03-16T03:45:25;99750.03;;;5.65;100.00
63190;BME280;49286;44.460;26.114;2023-03-16T03:47:51;99608.00;;;4.91;100.00
63190;BME280;49286;44.460;26.114;2023-03-16T03:50:19;99602.72;;;4.80;100.00
63190;BME280;49286;44.460;26.114;2023-03-16T03:52:45;99614.88;;;4.84;100.00
63190;BME280;49286;44.460;26.114;2023-03-16T03:55:11;99733.41;;;5.49;100.00
63190;BME280;49286;44.460;26.114;2023-03-16T03:57:36;99736.72;;;5.32;100.00
63190;BME280;49286;44.460;26.114;2023-03-16T04:00:06;99592.19;;;4.68;100.00
63190;BME280;49286;44.460;26.114;2023-03-16T04:02:34;99708.00;;;5.24;100.00
63190;BME280;49286;44.460;26.114;2023-03-16T04:04:59;99623.38;;;4.70;100.00
63190;BME280;49286;44.460;26.114;2023-03-16T04:07:24;99610.38;;;4.68;100.00
63190;BME280;49286;44.460;26.114;2023-03-16T04:09:50;99722.09;;;5.47;100.00
63190;BME280;49286;44.460;26.114;2023-03-16T04:12:15;99738.47;;;5.34;100.00
63190;BME280;49286;44.460;26.114;2023-03-16T04:14:41;99719.41;;;5.35;100.00
63190;BME280;49286;44.460;26.114;2023-03-16T04:17:07;99768.94;;;5.47;100.00
63190;BME280;49286;44.460;26.114;2023-03-16T04:19:33;99774.16;;;5.47;100.00
63190;BME280;49286;44.460;26.114;2023-03-16T04:21:58;99641.75;;;4.85;100.00
63190;BME280;49286;44.460;26.114;2023-03-16T04:24:24;99655.31;;;4.61;100.00
63190;BME280;49286;44.460;26.114;2023-03-16T04:26:49;99807.88;;;5.37;100.00
63190;BME280;49286;44.460;26.114;2023-03-16T04:29:15;99753.09;;;5.23;100.00
63190;BME280;49286;44.460;26.114;2023-03-16T04:31:44;99771.41;;;5.32;100.00
63190;BME280;49286;44.460;26.114;2023-03-16T04:34:10;99680.47;;;4.63;100.00
63190;BME280;49286;44.460;26.114;2023-03-16T04:36:38;99800.94;;;5.37;100.00
63190;BME280;49286;44.460;26.114;2023-03-16T04:39:04;99711.81;;;4.76;100.00
63190;BME280;49286;44.460;26.114;2023-03-16T04:41:30;99689.34;;;4.81;100.00
63190;BME280;49286;44.460;26.114;2023-03-16T04:43:56;99704.81;;;4.69;100.00
63190;BME280;49286;44.460;26.114;2023-03-16T04:46:23;99747.50;;;4.89;100.00
63190;BME280;49286;44.460;26.114;2023-03-16T04:48:51;99744.03;;;4.89;100.00
63190;BME280;49286;44.460;26.114;2023-03-16T04:51:16;99869.59;;;5.52;100.00
63190;BME280;49286;44.460;26.114;2023-03-16T04:53:42;99873.13;;;5.55;100.00
63190;BME280;49286;44.460;26.114;2023-03-16T04:56:09;99889.69;;;5.63;100.00
63190;BME280;49286;44.460;26.114;2023-03-16T04:58:42;99886.91;;;5.46;100.00
63190;BME280;49286;44.460;26.114;2023-03-16T05:01:07;99757.63;;;4.68;100.00
63190;BME280;49286;44.460;26.114;2023-03-16T05:03:33;99866.53;;;5.15;100.00
63190;BME280;49286;44.460;26.114;2023-03-16T05:05:59;99761.72;;;4.50;100.00
63190;BME280;49286;44.460;26.114;2023-03-16T05:08:25;99837.06;;;5.14;100.00
63190;BME280;49286;44.460;26.114;2023-03-16T05:10:50;99877.25;;;5.38;100.00
63190;BME280;49286;44.460;26.114;2023-03-16T05:13:20;99885.69;;;5.21;100.00
63190;BME280;49286;44.460;26.114;2023-03-16T05:15:45;99905.72;;;5.25;100.00
63190;BME280;49286;44.460;26.114;2023-03-16T05:18:11;99875.03;;;5.00;100.00
63190;BME280;49286;44.460;26.114;2023-03-16T05:20:37;99930.00;;;5.29;100.00
63190;BME280;49286;44.460;26.114;2023-03-16T05:23:02;99915.81;;;5.04;100.00
63190;BME280;49286;44.460;26.114;2023-03-16T05:25:28;99955.03;;;5.19;100.00
63190;BME280;49286;44.460;26.114;2023-03-16T05:27:54;99809.06;;;4.32;100.00
63190;BME280;49286;44.460;26.114;2023-03-16T05:30:19;99951.91;;;5.43;100.00
63190;BME280;49286;44.460;26.114;2023-03-16T05:32:45;99928.06;;;5.11;100.00
63190;BME280;49286;44.460;26.114;2023-03-16T05:35:11;99873.22;;;4.96;100.00
63190;BME280;49286;44.460;26.114;2023-03-16T05:37:41;99831.84;;;4.49;100.00
63190;BME280;49286;44.460;26.114;2023-03-16T05:40:09;99811.41;;;4.15;100.00
63190;BME280;49286;44.460;26.114;2023-03-16T05:42:44;99919.34;;;5.09;100.00
63190;BME280;49286;44.460;26.114;2023-03-16T05:45:11;99828.13;;;4.31;100.00
63190;BME280;49286;44.460;26.114;2023-03-16T05:47:36;99873.38;;;4.47;100.00
63190;BME280;49286;44.460;26.114;2023-03-16T05:50:03;99862.09;;;4.47;100.00
63190;BME280;49286;44.460;26.114;2023-03-16T05:52:29;99754.03;;;4.00;100.00
63190;BME280;49286;44.460;26.114;2023-03-16T05:54:55;99987.03;;;5.14;100.00
63190;BME280;49286;44.460;26.114;2023-03-16T05:57:20;99789.25;;;3.83;100.00
63190;BME280;49286;44.460;26.114;2023-03-16T05:59:46;99869.84;;;4.43;100.00
63190;BME280;49286;44.460;26.114;2023-03-16T06:02:12;99913.91;;;4.37;100.00
63190;BME280;49286;44.460;26.114;2023-03-16T06:04:38;100028.69;;;5.15;100.00
63190;BME280;49286;44.460;26.114;2023-03-16T06:07:04;99881.88;;;4.37;100.00
63190;BME280;49286;44.460;26.114;2023-03-16T06:09:29;99907.69;;;4.28;100.00
63190;BME280;49286;44.460;26.114;2023-03-16T06:11:54;99883.47;;;4.29;100.00
63190;BME280;49286;44.460;26.114;2023-03-16T06:14:20;100025.34;;;5.25;100.00
63190;BME280;49286;44.460;26.114;2023-03-16T06:16:47;100017.44;;;5.18;100.00
63190;BME280;49286;44.460;26.114;2023-03-16T06:19:12;99891.50;;;4.44;100.00
63190;BME280;49286;44.460;26.114;2023-03-16T06:21:38;99905.16;;;4.32;100.00
63190;BME280;49286;44.460;26.114;2023-03-16T06:24:04;100006.66;;;4.93;100.00
63190;BME280;49286;44.460;26.114;2023-03-16T06:26:31;99864.31;;;4.23;100.00
63190;BME280;49286;44.460;26.114;2023-03-16T06:28:57;100050.00;;;5.49;100.00
63190;BME280;49286;44.460;26.114;2023-03-16T06:31:22;100051.19;;;5.15;100.00
63190;BME280;49286;44.460;26.114;2023-03-16T06:33:48;100050.34;;;5.16;100.00
63190;BME280;49286;44.460;26.114;2023-03-16T06:36:13;99927.78;;;4.39;100.00
63190;BME280;49286;44.460;26.114;2023-03-16T06:38:39;100029.50;;;5.14;100.00
63190;BME280;49286;44.460;26.114;2023-03-16T06:41:04;100048.63;;;5.16;100.00
63190;BME280;49286;44.460;26.114;2023-03-16T06:43:30;100074.94;;;5.35;100.00
63190;BME280;49286;44.460;26.114;2023-03-16T06:45:55;100062.50;;;5.17;100.00
63190;BME280;49286;44.460;26.114;2023-03-16T06:48:23;99924.25;;;4.34;100.00
63190;BME280;49286;44.460;26.114;2023-03-16T06:50:48;100065.84;;;5.10;100.00
63190;BME280;49286;44.460;26.114;2023-03-16T06:53:14;99962.72;;;4.55;100.00
63190;BME280;49286;44.460;26.114;2023-03-16T06:55:39;100071.22;;;5.20;100.00
63190;BME280;49286;44.460;26.114;2023-03-16T06:58:05;100072.97;;;5.21;100.00
63190;BME280;49286;44.460;26.114;2023-03-16T07:00:31;99947.28;;;4.64;100.00
63190;BME280;49286;44.460;26.114;2023-03-16T07:02:58;100047.81;;;5.22;100.00
63190;BME280;49286;44.460;26.114;2023-03-16T07:05:24;99947.72;;;4.39;100.00
63190;BME280;49286;44.460;26.114;2023-03-16T07:07:49;100095.47;;;5.19;100.00
63190;BME280;49286;44.460;26.114;2023-03-16T07:10:16;99966.09;;;4.50;100.00
63190;BME280;49286;44.460;26.114;2023-03-16T07:12:43;100105.97;;;5.24;100.00
63190;BME280;49286;44.460;26.114;2023-03-16T07:15:09;100088.41;;;5.11;100.00
63190;BME280;49286;44.460;26.114;2023-03-16T07:17:36;99998.09;;;4.49;100.00
63190;BME280;49286;44.460;26.114;2023-03-16T07:20:02;100114.53;;;5.18;100.00
63190;BME280;49286;44.460;26.114;2023-03-16T07:22:30;99974.88;;;4.58;100.00
63190;BME280;49286;44.460;26.114;2023-03-16T07:24:56;100113.38;;;5.53;100.00
63190;BME280;49286;44.460;26.114;2023-03-16T07:27:23;100090.31;;;5.21;100.00
63190;BME280;49286;44.460;26.114;2023-03-16T07:29:50;100081.72;;;5.26;100.00
63190;BME280;49286;44.460;26.114;2023-03-16T07:32:17;100040.00;;;4.67;100.00
63190;BME280;49286;44.460;26.114;2023-03-16T07:34:42;100101.75;;;4.82;100.00
63190;BME280;49286;44.460;26.114;2023-03-16T07:37:08;100129.94;;;5.06;100.00
63190;BME280;49286;44.460;26.114;2023-03-16T07:39:36;100128.22;;;5.06;100.00
63190;BME280;49286;44.460;26.114;2023-03-16T07:42:02;100129.28;;;5.18;100.00
63190;BME280;49286;44.460;26.114;2023-03-16T07:44:29;100142.13;;;5.10;100.00
63190;BME280;49286;44.460;26.114;2023-03-16T07:46:55;99972.69;;;4.32;100.00
63190;BME280;49286;44.460;26.114;2023-03-16T07:49:21;100116.94;;;5.06;100.00
63190;BME280;49286;44.460;26.114;2023-03-16T07:51:47;99984.72;;;4.27;100.00
63190;BME280;49286;44.460;26.114;2023-03-16T07:54:12;100159.16;;;5.43;100.00
63190;BME280;49286;44.460;26.114;2023-03-16T07:56:38;100029.72;;;4.73;100.00
63190;BME280;49286;44.460;26.114;2023-03-16T07:59:04;100054.81;;;4.71;100.00
63190;BME280;49286;44.460;26.114;2023-03-16T08:01:29;100165.88;;;5.28;100.00
63190;BME280;49286;44.460;26.114;2023-03-16T08:03:55;100144.03;;;5.19;100.00
63190;BME280;49286;44.460;26.114;2023-03-16T08:06:20;100059.31;;;4.81;100.00
63190;BME280;49286;44.460;26.114;2023-03-16T08:08:46;100139.16;;;4.89;100.00
63190;BME280;49286;44.460;26.114;2023-03-16T08:11:12;100165.94;;;5.32;100.00
63190;BME280;49286;44.460;26.114;2023-03-16T08:13:38;100187.78;;;5.43;100.00
63190;BME280;49286;44.460;26.114;2023-03-16T08:16:05;100023.13;;;4.43;100.00
63190;BME280;49286;44.460;26.114;2023-03-16T08:18:35;100043.66;;;4.78;100.00
63190;BME280;49286;44.460;26.114;2023-03-16T08:21:01;100127.50;;;5.15;100.00
63190;BME280;49286;44.460;26.114;2023-03-16T08:23:26;100187.97;;;5.03;100.00
63190;BME280;49286;44.460;26.114;2023-03-16T08:25:54;100156.28;;;5.26;100.00
63190;BME280;49286;44.460;26.114;2023-03-16T08:28:20;100137.78;;;5.09;100.00
63190;BME280;49286;44.460;26.114;2023-03-16T08:30:50;100193.53;;;5.23;100.00
63190;BME280;49286;44.460;26.114;2023-03-16T08:33:16;100173.06;;;5.45;100.00
63190;BME280;49286;44.460;26.114;2023-03-16T08:35:43;100157.53;;;5.49;100.00
63190;BME280;49286;44.460;26.114;2023-03-16T08:38:10;100072.66;;;5.03;100.00
63190;BME280;49286;44.460;26.114;2023-03-16T08:40:35;99971.69;;;4.26;100.00
63190;BME280;49286;44.460;26.114;2023-03-16T08:43:01;100201.44;;;5.29;100.00
63190;BME280;49286;44.460;26.114;2023-03-16T08:45:28;100197.16;;;5.33;100.00
63190;BME280;49286;44.460;26.114;2023-03-16T08:47:54;100208.19;;;5.18;100.00
63190;BME280;49286;44.460;26.114;2023-03-16T08:50:19;100075.84;;;4.39;100.00
63190;BME280;49286;44.460;26.114;2023-03-16T08:52:46;100146.94;;;4.89;100.00
63190;BME280;49286;44.460;26.114;2023-03-16T08:55:13;100101.50;;;4.67;100.00
63190;BME280;49286;44.460;26.114;2023-03-16T08:57:40;100097.56;;;4.89;100.00
63190;BME280;49286;44.460;26.114;2023-03-16T09:00:06;100224.44;;;5.55;100.00
63190;BME280;49286;44.460;26.114;2023-03-16T09:02:42;100078.69;;;5.00;100.00
63190;BME280;49286;44.460;26.114;2023-03-16T09:05:09;100226.59;;;5.31;100.00
63190;BME280;49286;44.460;26.114;2023-03-16T09:07:36;100212.75;;;5.32;100.00
63190;BME280;49286;44.460;26.114;2023-03-16T09:10:04;100110.75;;;4.99;100.00
63190;BME280;49286;44.460;26.114;2023-03-16T09:12:33;100081.63;;;4.69;100.00
63190;BME280;49286;44.460;26.114;2023-03-16T09:14:59;100213.13;;;5.53;100.00
63190;BME280;49286;44.460;26.114;2023-03-16T09:17:25;100212.63;;;5.76;100.00
63190;BME280;49286;44.460;26.114;2023-03-16T09:19:51;100075.16;;;4.95;100.00
63190;BME280;49286;44.460;26.114;2023-03-16T09:22:18;100133.00;;;5.34;100.00
63190;BME280;49286;44.460;26.114;2023-03-16T09:24:43;100068.63;;;5.20;100.00
63190;BME280;49286;44.460;26.114;2023-03-16T09:27:09;100069.44;;;5.16;100.00
63190;BME280;49286;44.460;26.114;2023-03-16T09:29:35;100100.47;;;5.07;100.00
63190;BME280;49286;44.460;26.114;2023-03-16T09:32:00;100074.66;;;5.18;100.00
63190;BME280;49286;44.460;26.114;2023-03-16T09:34:26;100059.09;;;5.21;100.00
63190;BME280;49286;44.460;26.114;2023-03-16T09:36:52;100061.69;;;5.21;100.00
63190;BME280;49286;44.460;26.114;2023-03-16T09:39:17;100197.56;;;6.09;100.00
63190;BME280;49286;44.460;26.114;2023-03-16T09:41:54;100050.34;;;4.64;100.00
63190;BME280;49286;44.460;26.114;2023-03-16T09:47:30;100056.88;;;4.91;100.00
63190;BME280;49286;44.460;26.114;2023-03-16T09:49:59;100064.25;;;5.18;100.00
63190;BME280;49286;44.460;26.114;2023-03-16T09:55:29;100060.91;;;5.25;100.00
63190;BME280;49286;44.460;26.114;2023-03-16T09:57:57;100065.84;;;5.08;100.00
63190;BME280;49286;44.460;26.114;2023-03-16T10:00:30;100166.28;;;5.55;100.00
63190;BME280;49286;44.460;26.114;2023-03-16T10:05:37;100080.78;;;5.20;100.00
63190;BME280;49286;44.460;26.114;2023-03-16T10:08:30;100089.78;;;4.44;100.00
63190;BME280;49286;44.460;26.114;2023-03-16T10:16:41;100188.16;;;5.64;100.00
63190;BME280;49286;44.460;26.114;2023-03-16T10:19:20;100208.38;;;5.81;100.00
63190;BME280;49286;44.460;26.114;2023-03-16T10:21:51;100140.44;;;5.65;100.00
63190;BME280;49286;44.460;26.114;2023-03-16T10:27:02;100181.69;;;5.94;100.00
63190;BME280;49286;44.460;26.114;2023-03-16T10:29:31;100029.63;;;4.69;100.00
63190;BME280;49286;44.460;26.114;2023-03-16T10:32:06;100167.56;;;5.80;100.00
63190;BME280;49286;44.460;26.114;2023-03-16T10:34:35;99907.00;;;4.39;100.00
63190;BME280;49286;44.460;26.114;2023-03-16T10:37:03;100166.94;;;5.40;100.00
63190;BME280;49286;44.460;26.114;2023-03-16T10:39:35;100152.78;;;5.77;100.00
63190;BME280;49286;44.460;26.114;2023-03-16T10:42:01;100119.69;;;5.70;100.00
63190;BME280;49286;44.460;26.114;2023-03-16T10:44:28;99999.63;;;4.89;100.00
63190;BME280;49286;44.460;26.114;2023-03-16T10:47:02;100017.75;;;4.83;100.00
63190;BME280;49286;44.460;26.114;2023-03-16T10:49:39;100134.41;;;5.15;100.00
63190;BME280;49286;44.460;26.114;2023-03-16T10:52:19;100142.97;;;5.61;100.00
63190;BME280;49286;44.460;26.114;2023-03-16T10:54:54;100154.91;;;5.46;100.00
63190;BME280;49286;44.460;26.114;2023-03-16T10:57:36;100044.97;;;5.05;100.00
63190;BME280;49286;44.460;26.114;2023-03-16T11:00:07;100167.13;;;5.52;100.00
63190;BME280;49286;44.460;26.114;2023-03-16T11:02:46;100154.00;;;5.98;100.00
63190;BME280;49286;44.460;26.114;2023-03-16T11:08:15;100169.28;;;5.78;100.00
63190;BME280;49286;44.460;26.114;2023-03-16T11:10:45;100053.47;;;4.95;100.00
63190;BME280;49286;44.460;26.114;2023-03-16T11:13:16;100171.81;;;5.73;100.00
63190;BME280;49286;44.460;26.114;2023-03-16T11:18:40;100164.19;;;5.85;100.00
63190;BME280;49286;44.460;26.114;2023-03-16T11:24:28;100148.28;;;6.26;100.00
63190;BME280;49286;44.460;26.114;2023-03-16T11:26:57;100048.50;;;5.65;100.00
63190;BME280;49286;44.460;26.114;2023-03-16T11:32:17;100040.84;;;5.77;100.00
63190;BME280;49286;44.460;26.114;2023-03-16T11:34:45;100169.94;;;6.22;100.00
63190;BME280;49286;44.460;26.114;2023-03-16T11:42:29;100123.81;;;6.13;100.00
63190;BME280;49286;44.460;26.114;2023-03-16T11:45:10;100169.13;;;6.26;100.00
63190;BME280;49286;44.460;26.114;2023-03-16T11:53:38;100167.66;;;6.45;100.00
63190;BME280;49286;44.460;26.114;2023-03-16T12:01:13;100048.13;;;6.01;100.00
63190;BME280;49286;44.460;26.114;2023-03-16T12:03:53;100174.03;;;6.67;100.00
63190;BME280;49286;44.460;26.114;2023-03-16T12:14:29;100202.78;;;6.75;100.00
63190;BME280;49286;44.460;26.114;2023-03-16T12:17:15;100200.22;;;6.81;100.00
63190;BME280;49286;44.460;26.114;2023-03-16T12:19:53;100054.19;;;6.00;100.00
63190;BME280;49286;44.460;26.114;2023-03-16T12:22:34;100202.75;;;6.73;100.00
63190;BME280;49286;44.460;26.114;2023-03-16T12:25:03;100056.66;;;5.91;100.00
63190;BME280;49286;44.460;26.114;2023-03-16T12:27:34;100151.47;;;6.74;100.00
63190;BME280;49286;44.460;26.114;2023-03-16T12:32:50;100079.72;;;5.66;100.00
63190;BME280;49286;44.460;26.114;2023-03-16T12:35:54;100086.34;;;6.02;100.00
63190;BME280;49286;44.460;26.114;2023-03-16T12:38:43;100235.09;;;6.88;100.00
63190;BME280;49286;44.460;26.114;2023-03-16T12:44:10;100232.69;;;7.05;100.00
63190;BME280;49286;44.460;26.114;2023-03-16T12:46:52;100228.41;;;7.11;100.00
63190;BME280;49286;44.460;26.114;2023-03-16T12:49:22;100108.06;;;6.04;100.00
63190;BME280;49286;44.460;26.114;2023-03-16T12:52:05;100248.44;;;7.12;100.00
63190;BME280;49286;44.460;26.114;2023-03-16T12:54:31;100130.81;;;6.18;100.00
63190;BME280;49286;44.460;26.114;2023-03-16T12:57:05;100263.06;;;7.01;100.00
63190;BME280;49286;44.460;26.114;2023-03-16T12:59:40;100143.25;;;6.39;100.00
63190;BME280;49286;44.460;26.114;2023-03-16T13:02:16;100284.66;;;6.89;100.00
63190;BME280;49286;44.460;26.114;2023-03-16T13:04:46;100151.94;;;6.41;100.00
63190;BME280;49286;44.460;26.114;2023-03-16T13:07:18;100283.84;;;6.93;100.00
63190;BME280;49286;44.460;26.114;2023-03-16T13:09:53;100286.00;;;7.27;100.00
63190;BME280;49286;44.460;26.114;2023-03-16T13:12:32;100276.75;;;6.82;100.00
63190;BME280;49286;44.460;26.114;2023-03-16T13:15:13;100303.94;;;7.02;100.00
63190;BME280;49286;44.460;26.114;2023-03-16T13:17:41;100170.28;;;6.48;100.00
63190;BME280;49286;44.460;26.114;2023-03-16T13:27:59;100276.28;;;7.15;100.00
63190;BME280;49286;44.460;26.114;2023-03-16T13:30:28;100302.63;;;7.36;100.00
63190;BME280;49286;44.460;26.114;2023-03-16T13:33:07;100292.25;;;7.43;100.00
63190;BME280;49286;44.460;26.114;2023-03-16T13:35:39;100187.28;;;6.87;100.00
63190;BME280;49286;44.460;26.114;2023-03-16T13:38:05;100200.41;;;6.93;100.00
63190;BME280;49286;44.460;26.114;2023-03-16T13:40:44;100324.44;;;7.42;100.00
63190;BME280;49286;44.460;26.114;2023-03-16T13:43:14;100181.22;;;6.88;100.00
63190;BME280;49286;44.460;26.114;2023-03-16T13:45:41;100301.00;;;7.45;100.00
63190;BME280;49286;44.460;26.114;2023-03-16T13:48:13;100271.47;;;7.52;100.00
63190;BME280;49286;44.460;26.114;2023-03-16T13:50:40;100190.94;;;7.03;100.00
63190;BME280;49286;44.460;26.114;2023-03-16T13:53:21;100315.19;;;7.71;100.00
63190;BME280;49286;44.460;26.114;2023-03-16T13:55:49;100317.81;;;7.73;100.00
63190;BME280;49286;44.460;26.114;2023-03-16T13:58:33;100235.38;;;7.14;100.00
63190;BME280;49286;44.460;26.114;2023-03-16T14:01:02;100195.00;;;6.80;100.00
63190;BME280;49286;44.460;26.114;2023-03-16T14:03:37;100325.50;;;7.60;100.00
63190;BME280;49286;44.460;26.114;2023-03-16T14:06:04;100323.78;;;7.63;100.00
63190;BME280;49286;44.460;26.114;2023-03-16T14:08:31;100267.63;;;7.21;100.00
63190;BME280;49286;44.460;26.114;2023-03-16T14:10:58;100395.91;;;7.51;100.00